Terminal Aerodrome Forecast
Issued by NWS Upton, NY

Home | Current Version | Previous Version | Text Only | Print | Product List | Glossary On
Versions: 1 2 3 4 5 6 7 8 9 10 11 12 13 14 15 16 17 18 19 20 21 22 23 24 25 26 27 28 29 30 31 32 33 34
525
FTUS41 KOKX 291327 AAB
TAFISP
TAF AMD
KISP 291327Z 2913/3012 06012G19KT P6SM OVC015
     FM291800 06016G24KT P6SM OVC025
     FM300800 06019G26KT P6SM -RA OVC015=

USA.gov is the U.S. government's official web portal to all federal, state and local government web resources and services.